This is the latest recevied weather packets stored in our database for station/object KI7CSN-13. If no packets are shown the sender has not sent any weather packets the latest 10 day(s).
| Time | Temp. | Humidity | Pressure | Rain* | Wind** | Luminosity | Snow |
|---|---|---|---|---|---|---|---|
| 1777595574 | 23.89° C | 15% | 978.5 hPa | 0 mm | - | - | - |
| 1777595274 | 23.89° C | 14% | 978.5 hPa | 0 mm | - | - | - |
| 1777594973 | 24.44° C | 14% | 978.5 hPa | 0 mm | - | - | - |
| 1777594674 | 24.44° C | 14% | 978.5 hPa | 0 mm | - | - | - |
| 1777594374 | 24.44° C | 15% | 978.5 hPa | 0 mm | - | - | - |
| 1777594074 | 23.89° C | 15% | 978.4 hPa | 0 mm | - | - | - |
| 1777593773 | 24.44° C | 14% | 978.4 hPa | 0 mm | - | - | - |
| 1777593474 | 25° C | 14% | 978.5 hPa | 0 mm | - | - | - |
| 1777593174 | 23.89° C | 14% | 978.4 hPa | 0 mm | - | - | - |
| 1777592874 | 25° C | 13% | 978.4 hPa | 0 mm | - | - | - |
| 1777592574 | 25.56° C | 13% | 978.4 hPa | 0 mm | - | - | - |
| 1777592274 | 25° C | 13% | 978.4 hPa | 0 mm | - | - | - |
| 1777591974 | 23.89° C | 15% | 978.4 hPa | 0 mm | - | - | - |
| 1777591674 | 25° C | 13% | 978.4 hPa | 0 mm | - | - | - |
| 1777591374 | 25.56° C | 13% | 978.4 hPa | 0 mm | - | - | - |
| 1777591074 | 24.44° C | 14% | 978.4 hPa | 0 mm | - | - | - |
| 1777590774 | 25° C | 13% | 978.5 hPa | 0 mm | - | - | - |
| 1777590474 | 25° C | 14% | 978.4 hPa | 0 mm | - | - | - |
| 1777590174 | 25° C | 13% | 978.6 hPa | 0 mm | - | - | - |
| 1777589874 | 25.56° C | 13% | 978.5 hPa | 0 mm | - | - | - |
| 1777589574 | 25.56° C | 13% | 978.6 hPa | 0 mm | - | - | - |
| 1777589274 | 23.89° C | 14% | 978.6 hPa | 0 mm | - | - | - |
| 1777588974 | 25° C | 13% | 978.6 hPa | 0 mm | - | - | - |
| 1777588674 | 25° C | 13% | 978.7 hPa | 0 mm | - | - | - |
| 1777588374 | 24.44° C | 18% | 978.8 hPa | 0 mm | - | - | - |
* Rain latest hour (hover to see other rain measurements)
** Current wind speed in m/s (hover to see current wind gust speed)